sensor_id;sensor_type;location;lat;lon;timestamp;P1;durP1;ratioP1;P2;durP2;ratioP2
24521;SDS011;12680;57.804;12.190;2023-02-01T00:02:15;9.32;;;2.17;;
24521;SDS011;12680;57.804;12.190;2023-02-01T00:04:42;6.60;;;1.85;;
24521;SDS011;12680;57.804;12.190;2023-02-01T00:07:09;12.23;;;1.63;;
24521;SDS011;12680;57.804;12.190;2023-02-01T00:09:39;7.15;;;1.67;;
24521;SDS011;12680;57.804;12.190;2023-02-01T00:12:06;12.45;;;1.40;;
24521;SDS011;12680;57.804;12.190;2023-02-01T00:14:33;11.00;;;1.85;;
24521;SDS011;12680;57.804;12.190;2023-02-01T00:19:32;11.70;;;1.58;;
24521;SDS011;12680;57.804;12.190;2023-02-01T00:22:00;13.70;;;1.65;;
24521;SDS011;12680;57.804;12.190;2023-02-01T00:24:27;6.82;;;1.70;;
24521;SDS011;12680;57.804;12.190;2023-02-01T00:26:54;12.07;;;1.83;;
24521;SDS011;12680;57.804;12.190;2023-02-01T00:29:22;15.95;;;2.17;;
24521;SDS011;12680;57.804;12.190;2023-02-01T00:31:49;15.45;;;2.10;;
24521;SDS011;12680;57.804;12.190;2023-02-01T00:34:18;14.98;;;2.28;;
24521;SDS011;12680;57.804;12.190;2023-02-01T00:36:45;13.93;;;1.98;;
24521;SDS011;12680;57.804;12.190;2023-02-01T00:39:13;7.57;;;1.95;;
24521;SDS011;12680;57.804;12.190;2023-02-01T00:41:40;11.90;;;1.98;;
24521;SDS011;12680;57.804;12.190;2023-02-01T00:44:07;11.23;;;2.22;;
24521;SDS011;12680;57.804;12.190;2023-02-01T00:46:34;10.43;;;1.83;;
24521;SDS011;12680;57.804;12.190;2023-02-01T00:49:02;10.68;;;1.42;;
24521;SDS011;12680;57.804;12.190;2023-02-01T00:51:29;10.30;;;2.20;;
24521;SDS011;12680;57.804;12.190;2023-02-01T00:53:56;10.00;;;1.65;;
24521;SDS011;12680;57.804;12.190;2023-02-01T00:56:23;13.73;;;1.60;;
24521;SDS011;12680;57.804;12.190;2023-02-01T00:58:51;8.73;;;1.50;;
24521;SDS011;12680;57.804;12.190;2023-02-01T01:01:20;10.65;;;1.33;;
24521;SDS011;12680;57.804;12.190;2023-02-01T01:03:56;10.88;;;1.45;;
24521;SDS011;12680;57.804;12.190;2023-02-01T01:06:25;9.73;;;1.50;;
24521;SDS011;12680;57.804;12.190;2023-02-01T01:08:55;6.57;;;1.13;;
24521;SDS011;12680;57.804;12.190;2023-02-01T01:11:24;5.70;;;1.60;;
24521;SDS011;12680;57.804;12.190;2023-02-01T01:13:54;10.85;;;1.50;;
24521;SDS011;12680;57.804;12.190;2023-02-01T01:16:22;15.13;;;2.20;;
24521;SDS011;12680;57.804;12.190;2023-02-01T01:18:50;11.57;;;2.03;;
24521;SDS011;12680;57.804;12.190;2023-02-01T01:21:17;13.00;;;1.70;;
24521;SDS011;12680;57.804;12.190;2023-02-01T01:23:45;19.80;;;2.00;;
24521;SDS011;12680;57.804;12.190;2023-02-01T01:26:14;13.55;;;2.08;;
24521;SDS011;12680;57.804;12.190;2023-02-01T01:28:44;19.88;;;2.47;;
24521;SDS011;12680;57.804;12.190;2023-02-01T01:31:11;12.68;;;1.70;;
24521;SDS011;12680;57.804;12.190;2023-02-01T01:33:39;11.05;;;2.45;;
24521;SDS011;12680;57.804;12.190;2023-02-01T01:36:06;11.73;;;1.70;;
24521;SDS011;12680;57.804;12.190;2023-02-01T01:38:37;7.80;;;1.63;;
24521;SDS011;12680;57.804;12.190;2023-02-01T01:41:05;15.05;;;2.35;;
24521;SDS011;12680;57.804;12.190;2023-02-01T01:46:28;8.65;;;1.60;;
24521;SDS011;12680;57.804;12.190;2023-02-01T01:49:07;7.35;;;1.10;;
24521;SDS011;12680;57.804;12.190;2023-02-01T01:51:37;10.18;;;1.23;;
24521;SDS011;12680;57.804;12.190;2023-02-01T01:54:12;12.00;;;1.70;;
24521;SDS011;12680;57.804;12.190;2023-02-01T01:56:44;18.90;;;1.77;;
24521;SDS011;12680;57.804;12.190;2023-02-01T01:59:17;11.35;;;2.25;;
24521;SDS011;12680;57.804;12.190;2023-02-01T02:01:45;13.50;;;1.60;;
24521;SDS011;12680;57.804;12.190;2023-02-01T02:04:12;12.77;;;2.13;;
24521;SDS011;12680;57.804;12.190;2023-02-01T02:06:50;10.68;;;1.73;;
24521;SDS011;12680;57.804;12.190;2023-02-01T02:09:19;12.68;;;2.65;;
24521;SDS011;12680;57.804;12.190;2023-02-01T02:11:46;20.55;;;2.15;;
24521;SDS011;12680;57.804;12.190;2023-02-01T02:14:13;15.77;;;2.65;;
24521;SDS011;12680;57.804;12.190;2023-02-01T02:22:27;10.95;;;2.05;;
24521;SDS011;12680;57.804;12.190;2023-02-01T02:50:44;15.20;;;2.60;;
24521;SDS011;12680;57.804;12.190;2023-02-01T02:53:32;13.35;;;2.60;;
24521;SDS011;12680;57.804;12.190;2023-02-01T02:56:45;10.25;;;2.05;;
24521;SDS011;12680;57.804;12.190;2023-02-01T02:59:33;16.08;;;2.17;;
24521;SDS011;12680;57.804;12.190;2023-02-01T03:02:20;19.17;;;2.58;;
24521;SDS011;12680;57.804;12.190;2023-02-01T03:05:06;12.93;;;1.85;;
24521;SDS011;12680;57.804;12.190;2023-02-01T03:10:18;13.75;;;2.00;;
24521;SDS011;12680;57.804;12.190;2023-02-01T03:13:08;9.85;;;2.17;;
24521;SDS011;12680;57.804;12.190;2023-02-01T03:18:28;14.38;;;2.22;;
24521;SDS011;12680;57.804;12.190;2023-02-01T03:21:03;13.90;;;2.33;;
24521;SDS011;12680;57.804;12.190;2023-02-01T03:23:35;13.75;;;2.15;;
24521;SDS011;12680;57.804;12.190;2023-02-01T03:26:07;15.18;;;2.17;;
24521;SDS011;12680;57.804;12.190;2023-02-01T03:28:38;9.68;;;2.28;;
24521;SDS011;12680;57.804;12.190;2023-02-01T03:31:12;14.90;;;2.50;;
24521;SDS011;12680;57.804;12.190;2023-02-01T03:33:40;23.38;;;3.72;;
24521;SDS011;12680;57.804;12.190;2023-02-01T03:39:13;15.57;;;3.00;;
24521;SDS011;12680;57.804;12.190;2023-02-01T03:44:22;21.73;;;2.90;;
24521;SDS011;12680;57.804;12.190;2023-02-01T03:47:33;14.15;;;2.40;;
24521;SDS011;12680;57.804;12.190;2023-02-01T03:49:53;13.45;;;3.03;;
24521;SDS011;12680;57.804;12.190;2023-02-01T03:52:28;23.25;;;2.92;;
24521;SDS011;12680;57.804;12.190;2023-02-01T03:55:07;21.08;;;3.20;;
24521;SDS011;12680;57.804;12.190;2023-02-01T03:57:37;23.45;;;3.47;;
24521;SDS011;12680;57.804;12.190;2023-02-01T04:00:14;21.80;;;3.80;;
24521;SDS011;12680;57.804;12.190;2023-02-01T04:02:43;19.73;;;2.97;;
24521;SDS011;12680;57.804;12.190;2023-02-01T04:05:10;25.10;;;3.05;;
24521;SDS011;12680;57.804;12.190;2023-02-01T04:07:38;17.88;;;2.65;;
24521;SDS011;12680;57.804;12.190;2023-02-01T04:10:05;18.45;;;3.65;;
24521;SDS011;12680;57.804;12.190;2023-02-01T04:12:32;27.80;;;3.50;;
24521;SDS011;12680;57.804;12.190;2023-02-01T04:14:59;24.92;;;3.25;;
24521;SDS011;12680;57.804;12.190;2023-02-01T04:17:26;23.17;;;3.60;;
24521;SDS011;12680;57.804;12.190;2023-02-01T04:19:52;22.85;;;3.55;;
24521;SDS011;12680;57.804;12.190;2023-02-01T04:22:20;17.45;;;2.88;;
24521;SDS011;12680;57.804;12.190;2023-02-01T04:24:47;19.27;;;3.22;;
24521;SDS011;12680;57.804;12.190;2023-02-01T04:27:14;17.40;;;2.70;;
24521;SDS011;12680;57.804;12.190;2023-02-01T04:29:41;23.20;;;3.35;;
24521;SDS011;12680;57.804;12.190;2023-02-01T04:32:08;26.98;;;4.30;;
24521;SDS011;12680;57.804;12.190;2023-02-01T04:34:35;18.63;;;2.83;;
24521;SDS011;12680;57.804;12.190;2023-02-01T04:37:02;22.05;;;3.10;;
24521;SDS011;12680;57.804;12.190;2023-02-01T04:39:29;22.63;;;3.58;;
24521;SDS011;12680;57.804;12.190;2023-02-01T04:41:56;25.95;;;3.40;;
24521;SDS011;12680;57.804;12.190;2023-02-01T04:44:23;21.98;;;2.65;;
24521;SDS011;12680;57.804;12.190;2023-02-01T04:46:50;9.13;;;2.38;;
24521;SDS011;12680;57.804;12.190;2023-02-01T04:49:17;15.80;;;2.88;;
24521;SDS011;12680;57.804;12.190;2023-02-01T04:51:44;11.38;;;2.75;;
24521;SDS011;12680;57.804;12.190;2023-02-01T04:54:11;13.88;;;2.90;;
24521;SDS011;12680;57.804;12.190;2023-02-01T04:56:37;20.52;;;3.33;;
24521;SDS011;12680;57.804;12.190;2023-02-01T04:59:04;18.33;;;3.00;;
24521;SDS011;12680;57.804;12.190;2023-02-01T05:01:32;16.67;;;3.10;;
24521;SDS011;12680;57.804;12.190;2023-02-01T05:03:59;19.27;;;3.08;;
24521;SDS011;12680;57.804;12.190;2023-02-01T05:06:26;18.63;;;2.65;;
24521;SDS011;12680;57.804;12.190;2023-02-01T05:08:53;15.50;;;2.97;;
24521;SDS011;12680;57.804;12.190;2023-02-01T05:11:19;20.65;;;2.88;;
24521;SDS011;12680;57.804;12.190;2023-02-01T05:14:05;15.38;;;2.88;;
24521;SDS011;12680;57.804;12.190;2023-02-01T05:16:32;14.35;;;1.85;;
24521;SDS011;12680;57.804;12.190;2023-02-01T05:18:59;16.95;;;3.45;;
24521;SDS011;12680;57.804;12.190;2023-02-01T05:21:26;14.82;;;3.22;;
24521;SDS011;12680;57.804;12.190;2023-02-01T05:23:53;22.08;;;3.25;;
24521;SDS011;12680;57.804;12.190;2023-02-01T05:26:39;24.88;;;3.42;;
24521;SDS011;12680;57.804;12.190;2023-02-01T05:29:07;13.30;;;2.55;;
24521;SDS011;12680;57.804;12.190;2023-02-01T05:31:34;21.55;;;3.40;;
24521;SDS011;12680;57.804;12.190;2023-02-01T05:34:02;20.42;;;3.60;;
24521;SDS011;12680;57.804;12.190;2023-02-01T05:36:29;19.27;;;2.85;;
24521;SDS011;12680;57.804;12.190;2023-02-01T05:38:56;22.73;;;3.25;;
24521;SDS011;12680;57.804;12.190;2023-02-01T05:41:23;18.85;;;3.95;;
24521;SDS011;12680;57.804;12.190;2023-02-01T05:43:50;20.13;;;3.95;;
24521;SDS011;12680;57.804;12.190;2023-02-01T05:46:17;18.95;;;3.10;;
24521;SDS011;12680;57.804;12.190;2023-02-01T05:48:44;23.42;;;4.20;;
24521;SDS011;12680;57.804;12.190;2023-02-01T05:51:11;19.00;;;3.30;;
24521;SDS011;12680;57.804;12.190;2023-02-01T05:53:38;21.98;;;3.30;;
24521;SDS011;12680;57.804;12.190;2023-02-01T05:56:05;16.63;;;2.72;;
24521;SDS011;12680;57.804;12.190;2023-02-01T05:58:32;21.35;;;2.95;;
24521;SDS011;12680;57.804;12.190;2023-02-01T06:00:59;17.95;;;3.47;;
24521;SDS011;12680;57.804;12.190;2023-02-01T06:03:26;20.35;;;3.17;;
24521;SDS011;12680;57.804;12.190;2023-02-01T06:05:54;19.20;;;2.97;;
24521;SDS011;12680;57.804;12.190;2023-02-01T06:08:21;18.50;;;2.33;;
24521;SDS011;12680;57.804;12.190;2023-02-01T06:10:57;18.65;;;2.67;;
24521;SDS011;12680;57.804;12.190;2023-02-01T06:13:24;23.23;;;3.72;;
24521;SDS011;12680;57.804;12.190;2023-02-01T06:15:51;22.02;;;4.20;;
24521;SDS011;12680;57.804;12.190;2023-02-01T06:18:18;17.65;;;3.13;;
24521;SDS011;12680;57.804;12.190;2023-02-01T06:20:51;24.02;;;2.90;;
24521;SDS011;12680;57.804;12.190;2023-02-01T06:23:21;13.77;;;2.40;;
24521;SDS011;12680;57.804;12.190;2023-02-01T06:25:57;15.32;;;3.30;;
24521;SDS011;12680;57.804;12.190;2023-02-01T06:28:26;19.55;;;3.38;;
24521;SDS011;12680;57.804;12.190;2023-02-01T06:30:54;26.30;;;3.53;;
24521;SDS011;12680;57.804;12.190;2023-02-01T06:33:21;19.40;;;2.65;;
24521;SDS011;12680;57.804;12.190;2023-02-01T06:35:47;18.67;;;2.83;;
24521;SDS011;12680;57.804;12.190;2023-02-01T06:38:14;19.88;;;2.42;;
24521;SDS011;12680;57.804;12.190;2023-02-01T06:40:41;19.48;;;2.78;;
24521;SDS011;12680;57.804;12.190;2023-02-01T06:43:08;24.90;;;2.47;;
24521;SDS011;12680;57.804;12.190;2023-02-01T06:45:35;17.20;;;2.80;;
24521;SDS011;12680;57.804;12.190;2023-02-01T06:48:02;16.98;;;2.63;;
24521;SDS011;12680;57.804;12.190;2023-02-01T06:50:28;17.85;;;2.33;;
24521;SDS011;12680;57.804;12.190;2023-02-01T06:52:55;16.13;;;2.53;;
24521;SDS011;12680;57.804;12.190;2023-02-01T06:55:22;20.60;;;2.75;;
24521;SDS011;12680;57.804;12.190;2023-02-01T06:57:52;18.15;;;3.38;;
24521;SDS011;12680;57.804;12.190;2023-02-01T07:00:20;14.70;;;3.15;;
24521;SDS011;12680;57.804;12.190;2023-02-01T07:02:51;11.77;;;2.38;;
24521;SDS011;12680;57.804;12.190;2023-02-01T07:05:17;21.80;;;2.85;;
24521;SDS011;12680;57.804;12.190;2023-02-01T07:07:44;14.43;;;2.22;;
24521;SDS011;12680;57.804;12.190;2023-02-01T07:10:11;19.02;;;2.55;;
24521;SDS011;12680;57.804;12.190;2023-02-01T07:12:38;10.82;;;2.40;;
24521;SDS011;12680;57.804;12.190;2023-02-01T07:15:05;16.08;;;2.40;;
24521;SDS011;12680;57.804;12.190;2023-02-01T07:17:32;26.05;;;2.92;;
24521;SDS011;12680;57.804;12.190;2023-02-01T07:19:59;24.05;;;2.95;;
24521;SDS011;12680;57.804;12.190;2023-02-01T07:22:27;16.77;;;2.70;;
24521;SDS011;12680;57.804;12.190;2023-02-01T07:24:55;18.70;;;2.58;;
24521;SDS011;12680;57.804;12.190;2023-02-01T07:27:22;19.08;;;2.95;;
24521;SDS011;12680;57.804;12.190;2023-02-01T07:29:51;12.23;;;3.00;;
24521;SDS011;12680;57.804;12.190;2023-02-01T07:32:18;18.35;;;2.67;;
24521;SDS011;12680;57.804;12.190;2023-02-01T07:34:45;19.65;;;2.20;;
24521;SDS011;12680;57.804;12.190;2023-02-01T07:37:12;10.40;;;2.72;;
24521;SDS011;12680;57.804;12.190;2023-02-01T07:39:39;15.85;;;2.28;;
24521;SDS011;12680;57.804;12.190;2023-02-01T07:42:05;18.30;;;2.63;;
24521;SDS011;12680;57.804;12.190;2023-02-01T07:44:32;22.45;;;4.00;;
24521;SDS011;12680;57.804;12.190;2023-02-01T07:46:59;10.20;;;2.47;;
24521;SDS011;12680;57.804;12.190;2023-02-01T07:49:26;17.70;;;2.35;;
24521;SDS011;12680;57.804;12.190;2023-02-01T07:51:53;16.98;;;2.20;;
24521;SDS011;12680;57.804;12.190;2023-02-01T07:54:19;17.33;;;3.08;;
24521;SDS011;12680;57.804;12.190;2023-02-01T07:56:46;12.68;;;2.40;;
24521;SDS011;12680;57.804;12.190;2023-02-01T07:59:13;15.98;;;2.40;;
24521;SDS011;12680;57.804;12.190;2023-02-01T08:01:41;21.00;;;2.78;;
24521;SDS011;12680;57.804;12.190;2023-02-01T08:04:09;20.73;;;2.50;;
24521;SDS011;12680;57.804;12.190;2023-02-01T08:06:38;21.75;;;3.55;;
24521;SDS011;12680;57.804;12.190;2023-02-01T08:09:06;18.65;;;2.22;;
24521;SDS011;12680;57.804;12.190;2023-02-01T08:11:37;15.73;;;3.00;;
24521;SDS011;12680;57.804;12.190;2023-02-01T08:14:04;23.77;;;2.40;;
24521;SDS011;12680;57.804;12.190;2023-02-01T08:16:32;15.75;;;3.25;;
24521;SDS011;12680;57.804;12.190;2023-02-01T08:19:01;21.75;;;2.45;;
24521;SDS011;12680;57.804;12.190;2023-02-01T08:21:28;17.58;;;2.35;;
24521;SDS011;12680;57.804;12.190;2023-02-01T08:24:05;10.20;;;2.15;;
24521;SDS011;12680;57.804;12.190;2023-02-01T08:26:32;9.15;;;1.80;;
24521;SDS011;12680;57.804;12.190;2023-02-01T08:29:00;15.07;;;3.08;;
24521;SDS011;12680;57.804;12.190;2023-02-01T08:31:29;12.52;;;2.63;;
24521;SDS011;12680;57.804;12.190;2023-02-01T08:33:58;17.05;;;3.47;;
24521;SDS011;12680;57.804;12.190;2023-02-01T08:36:27;18.48;;;2.28;;
24521;SDS011;12680;57.804;12.190;2023-02-01T08:38:55;7.70;;;1.52;;
24521;SDS011;12680;57.804;12.190;2023-02-01T08:41:23;10.95;;;2.22;;
24521;SDS011;12680;57.804;12.190;2023-02-01T08:43:51;13.90;;;2.70;;
24521;SDS011;12680;57.804;12.190;2023-02-01T08:46:20;14.25;;;2.90;;
24521;SDS011;12680;57.804;12.190;2023-02-01T08:48:47;12.63;;;2.42;;
24521;SDS011;12680;57.804;12.190;2023-02-01T08:51:15;13.50;;;2.38;;
24521;SDS011;12680;57.804;12.190;2023-02-01T08:53:44;16.42;;;2.38;;
24521;SDS011;12680;57.804;12.190;2023-02-01T08:56:11;17.10;;;2.67;;
24521;SDS011;12680;57.804;12.190;2023-02-01T08:58:39;23.50;;;2.75;;
24521;SDS011;12680;57.804;12.190;2023-02-01T09:01:07;15.80;;;2.30;;
24521;SDS011;12680;57.804;12.190;2023-02-01T09:03:35;11.02;;;2.33;;
24521;SDS011;12680;57.804;12.190;2023-02-01T09:06:03;14.02;;;2.55;;
24521;SDS011;12680;57.804;12.190;2023-02-01T09:08:31;20.13;;;2.70;;
24521;SDS011;12680;57.804;12.190;2023-02-01T09:11:03;18.70;;;2.50;;
24521;SDS011;12680;57.804;12.190;2023-02-01T09:13:31;22.80;;;2.65;;
24521;SDS011;12680;57.804;12.190;2023-02-01T09:15:59;22.58;;;2.70;;
24521;SDS011;12680;57.804;12.190;2023-02-01T09:18:26;9.40;;;1.92;;
24521;SDS011;12680;57.804;12.190;2023-02-01T09:20:53;17.30;;;2.47;;
24521;SDS011;12680;57.804;12.190;2023-02-01T09:23:20;15.02;;;2.20;;
24521;SDS011;12680;57.804;12.190;2023-02-01T09:25:47;20.70;;;3.08;;
24521;SDS011;12680;57.804;12.190;2023-02-01T09:28:16;16.13;;;2.45;;
24521;SDS011;12680;57.804;12.190;2023-02-01T09:30:44;16.45;;;2.63;;
24521;SDS011;12680;57.804;12.190;2023-02-01T09:33:10;13.98;;;2.70;;
24521;SDS011;12680;57.804;12.190;2023-02-01T09:35:37;23.33;;;2.92;;
24521;SDS011;12680;57.804;12.190;2023-02-01T09:38:04;20.50;;;2.42;;
24521;SDS011;12680;57.804;12.190;2023-02-01T09:40:32;19.90;;;3.42;;
24521;SDS011;12680;57.804;12.190;2023-02-01T09:45:53;18.65;;;2.67;;
24521;SDS011;12680;57.804;12.190;2023-02-01T09:48:40;22.50;;;3.10;;
24521;SDS011;12680;57.804;12.190;2023-02-01T09:51:14;21.33;;;2.45;;
24521;SDS011;12680;57.804;12.190;2023-02-01T09:53:48;16.25;;;2.75;;
24521;SDS011;12680;57.804;12.190;2023-02-01T09:56:41;16.48;;;2.80;;
24521;SDS011;12680;57.804;12.190;2023-02-01T09:59:17;20.85;;;3.20;;
24521;SDS011;12680;57.804;12.190;2023-02-01T10:01:49;14.35;;;3.50;;
24521;SDS011;12680;57.804;12.190;2023-02-01T10:04:16;13.20;;;2.88;;
24521;SDS011;12680;57.804;12.190;2023-02-01T10:12:16;12.95;;;2.13;;
24521;SDS011;12680;57.804;12.190;2023-02-01T10:18:19;16.77;;;2.55;;
24521;SDS011;12680;57.804;12.190;2023-02-01T10:20:53;18.23;;;2.75;;
24521;SDS011;12680;57.804;12.190;2023-02-01T10:24:22;16.75;;;3.00;;
24521;SDS011;12680;57.804;12.190;2023-02-01T10:26:44;13.55;;;2.50;;
24521;SDS011;12680;57.804;12.190;2023-02-01T10:29:21;20.13;;;3.00;;
24521;SDS011;12680;57.804;12.190;2023-02-01T10:31:52;17.55;;;2.83;;
24521;SDS011;12680;57.804;12.190;2023-02-01T10:36:54;14.23;;;2.35;;
24521;SDS011;12680;57.804;12.190;2023-02-01T10:39:34;11.90;;;2.83;;
24521;SDS011;12680;57.804;12.190;2023-02-01T10:42:03;19.15;;;3.55;;
24521;SDS011;12680;57.804;12.190;2023-02-01T10:44:30;12.38;;;2.50;;
24521;SDS011;12680;57.804;12.190;2023-02-01T10:47:01;16.23;;;2.03;;
24521;SDS011;12680;57.804;12.190;2023-02-01T10:49:34;17.75;;;2.35;;
24521;SDS011;12680;57.804;12.190;2023-02-01T10:54:41;20.95;;;3.42;;
24521;SDS011;12680;57.804;12.190;2023-02-01T10:57:09;17.25;;;3.08;;
24521;SDS011;12680;57.804;12.190;2023-02-01T10:59:47;25.75;;;2.70;;
24521;SDS011;12680;57.804;12.190;2023-02-01T11:02:25;25.27;;;3.50;;
24521;SDS011;12680;57.804;12.190;2023-02-01T11:05:01;20.67;;;2.72;;
24521;SDS011;12680;57.804;12.190;2023-02-01T11:07:35;19.90;;;3.25;;
24521;SDS011;12680;57.804;12.190;2023-02-01T11:10:03;22.63;;;3.85;;
24521;SDS011;12680;57.804;12.190;2023-02-01T11:12:35;35.25;;;3.83;;
24521;SDS011;12680;57.804;12.190;2023-02-01T11:15:13;13.45;;;2.45;;
24521;SDS011;12680;57.804;12.190;2023-02-01T11:17:45;23.30;;;3.40;;
24521;SDS011;12680;57.804;12.190;2023-02-01T11:20:18;24.52;;;3.00;;
24521;SDS011;12680;57.804;12.190;2023-02-01T11:22:53;16.02;;;3.15;;
24521;SDS011;12680;57.804;12.190;2023-02-01T11:25:21;24.58;;;3.67;;
24521;SDS011;12680;57.804;12.190;2023-02-01T11:27:50;22.80;;;3.25;;
24521;SDS011;12680;57.804;12.190;2023-02-01T11:30:30;25.17;;;3.30;;
24521;SDS011;12680;57.804;12.190;2023-02-01T11:32:59;18.60;;;3.03;;
24521;SDS011;12680;57.804;12.190;2023-02-01T11:35:30;19.42;;;3.20;;
24521;SDS011;12680;57.804;12.190;2023-02-01T11:37:58;22.85;;;4.53;;
24521;SDS011;12680;57.804;12.190;2023-02-01T11:40:29;21.02;;;3.75;;
24521;SDS011;12680;57.804;12.190;2023-02-01T11:45:58;19.33;;;2.88;;
24521;SDS011;12680;57.804;12.190;2023-02-01T11:48:27;26.75;;;4.07;;
24521;SDS011;12680;57.804;12.190;2023-02-01T11:53:33;24.30;;;3.90;;
24521;SDS011;12680;57.804;12.190;2023-02-01T11:56:36;21.08;;;4.15;;
24521;SDS011;12680;57.804;12.190;2023-02-01T11:59:12;24.90;;;3.65;;
24521;SDS011;12680;57.804;12.190;2023-02-01T12:07:13;29.45;;;4.35;;
24521;SDS011;12680;57.804;12.190;2023-02-01T12:12:55;27.88;;;3.97;;
24521;SDS011;12680;57.804;12.190;2023-02-01T12:21:46;31.08;;;4.25;;
24521;SDS011;12680;57.804;12.190;2023-02-01T12:27:21;26.65;;;3.72;;
24521;SDS011;12680;57.804;12.190;2023-02-01T12:38:46;15.68;;;3.10;;
24521;SDS011;12680;57.804;12.190;2023-02-01T12:44:01;19.35;;;3.05;;
24521;SDS011;12680;57.804;12.190;2023-02-01T12:47:35;20.98;;;3.13;;
24521;SDS011;12680;57.804;12.190;2023-02-01T12:52:48;28.42;;;4.68;;
24521;SDS011;12680;57.804;12.190;2023-02-01T12:55:21;18.60;;;3.03;;
24521;SDS011;12680;57.804;12.190;2023-02-01T12:58:03;20.60;;;2.67;;
24521;SDS011;12680;57.804;12.190;2023-02-01T13:00:45;15.02;;;2.72;;
24521;SDS011;12680;57.804;12.190;2023-02-01T13:03:20;29.10;;;3.45;;
24521;SDS011;12680;57.804;12.190;2023-02-01T13:05:58;21.45;;;3.85;;
24521;SDS011;12680;57.804;12.190;2023-02-01T13:08:56;17.40;;;4.22;;
24521;SDS011;12680;57.804;12.190;2023-02-01T13:11:39;16.02;;;2.75;;
24521;SDS011;12680;57.804;12.190;2023-02-01T13:17:20;17.30;;;2.90;;
24521;SDS011;12680;57.804;12.190;2023-02-01T13:22:32;24.92;;;4.05;;
24521;SDS011;12680;57.804;12.190;2023-02-01T13:25:04;23.67;;;3.63;;
24521;SDS011;12680;57.804;12.190;2023-02-01T13:28:06;25.10;;;3.30;;
24521;SDS011;12680;57.804;12.190;2023-02-01T13:30:43;18.40;;;3.15;;
24521;SDS011;12680;57.804;12.190;2023-02-01T13:41:54;19.83;;;3.83;;
24521;SDS011;12680;57.804;12.190;2023-02-01T13:47:30;20.48;;;3.92;;
24521;SDS011;12680;57.804;12.190;2023-02-01T13:52:39;23.38;;;3.85;;
24521;SDS011;12680;57.804;12.190;2023-02-01T13:57:40;26.40;;;5.47;;
24521;SDS011;12680;57.804;12.190;2023-02-01T14:10:55;24.98;;;4.05;;
24521;SDS011;12680;57.804;12.190;2023-02-01T14:13:37;27.02;;;3.60;;
24521;SDS011;12680;57.804;12.190;2023-02-01T14:24:04;26.02;;;4.55;;
24521;SDS011;12680;57.804;12.190;2023-02-01T14:26:50;31.75;;;4.15;;
24521;SDS011;12680;57.804;12.190;2023-02-01T14:42:24;10.85;;;2.00;;
24521;SDS011;12680;57.804;12.190;2023-02-01T14:55:43;9.90;;;1.83;;
24521;SDS011;12680;57.804;12.190;2023-02-01T14:58:42;10.77;;;1.40;;
24521;SDS011;12680;57.804;12.190;2023-02-01T15:01:18;8.10;;;1.70;;
24521;SDS011;12680;57.804;12.190;2023-02-01T15:04:00;7.05;;;1.65;;
24521;SDS011;12680;57.804;12.190;2023-02-01T15:17:19;12.02;;;3.45;;
24521;SDS011;12680;57.804;12.190;2023-02-01T15:19:59;11.43;;;2.70;;
24521;SDS011;12680;57.804;12.190;2023-02-01T15:22:34;11.00;;;1.80;;
24521;SDS011;12680;57.804;12.190;2023-02-01T15:25:01;7.85;;;1.63;;
24521;SDS011;12680;57.804;12.190;2023-02-01T15:27:29;7.00;;;1.40;;
24521;SDS011;12680;57.804;12.190;2023-02-01T15:30:07;7.03;;;1.38;;
24521;SDS011;12680;57.804;12.190;2023-02-01T15:32:42;4.50;;;1.67;;
24521;SDS011;12680;57.804;12.190;2023-02-01T15:43:35;8.93;;;1.83;;
24521;SDS011;12680;57.804;12.190;2023-02-01T15:46:22;8.60;;;1.60;;
24521;SDS011;12680;57.804;12.190;2023-02-01T15:48:58;4.60;;;1.50;;
24521;SDS011;12680;57.804;12.190;2023-02-01T15:51:26;5.10;;;1.70;;
24521;SDS011;12680;57.804;12.190;2023-02-01T15:53:56;8.88;;;2.67;;
24521;SDS011;12680;57.804;12.190;2023-02-01T15:56:34;8.77;;;3.42;;
24521;SDS011;12680;57.804;12.190;2023-02-01T15:59:04;8.48;;;2.08;;
24521;SDS011;12680;57.804;12.190;2023-02-01T16:01:38;5.00;;;1.60;;
24521;SDS011;12680;57.804;12.190;2023-02-01T16:04:21;10.00;;;1.70;;
24521;SDS011;12680;57.804;12.190;2023-02-01T16:09:22;5.38;;;1.60;;
24521;SDS011;12680;57.804;12.190;2023-02-01T16:14:22;8.65;;;1.85;;
24521;SDS011;12680;57.804;12.190;2023-02-01T16:16:50;7.03;;;2.05;;
24521;SDS011;12680;57.804;12.190;2023-02-01T16:19:18;7.00;;;1.80;;
24521;SDS011;12680;57.804;12.190;2023-02-01T16:21:46;8.13;;;1.52;;
24521;SDS011;12680;57.804;12.190;2023-02-01T16:24:13;6.25;;;1.52;;
24521;SDS011;12680;57.804;12.190;2023-02-01T16:26:40;5.22;;;1.63;;
24521;SDS011;12680;57.804;12.190;2023-02-01T16:29:07;3.92;;;1.42;;
24521;SDS011;12680;57.804;12.190;2023-02-01T16:31:35;6.88;;;1.85;;
24521;SDS011;12680;57.804;12.190;2023-02-01T16:34:05;7.47;;;1.83;;
24521;SDS011;12680;57.804;12.190;2023-02-01T16:36:33;6.20;;;1.63;;
24521;SDS011;12680;57.804;12.190;2023-02-01T16:39:00;6.85;;;1.75;;
24521;SDS011;12680;57.804;12.190;2023-02-01T16:41:29;9.25;;;2.75;;
24521;SDS011;12680;57.804;12.190;2023-02-01T16:43:56;6.93;;;2.33;;
24521;SDS011;12680;57.804;12.190;2023-02-01T16:46:24;5.47;;;1.90;;
24521;SDS011;12680;57.804;12.190;2023-02-01T16:48:54;6.47;;;1.70;;
24521;SDS011;12680;57.804;12.190;2023-02-01T16:51:24;2.97;;;1.33;;
24521;SDS011;12680;57.804;12.190;2023-02-01T16:53:52;6.55;;;1.33;;
24521;SDS011;12680;57.804;12.190;2023-02-01T16:56:28;3.85;;;1.20;;
24521;SDS011;12680;57.804;12.190;2023-02-01T16:58:57;5.88;;;1.42;;
24521;SDS011;12680;57.804;12.190;2023-02-01T17:01:24;6.85;;;1.73;;
24521;SDS011;12680;57.804;12.190;2023-02-01T17:03:52;7.47;;;1.85;;
24521;SDS011;12680;57.804;12.190;2023-02-01T17:06:20;7.55;;;1.75;;
24521;SDS011;12680;57.804;12.190;2023-02-01T17:08:50;7.38;;;1.70;;
24521;SDS011;12680;57.804;12.190;2023-02-01T17:11:19;6.35;;;1.98;;
24521;SDS011;12680;57.804;12.190;2023-02-01T17:13:46;6.93;;;2.05;;
24521;SDS011;12680;57.804;12.190;2023-02-01T17:16:29;5.00;;;2.22;;
24521;SDS011;12680;57.804;12.190;2023-02-01T17:18:59;9.98;;;2.50;;
24521;SDS011;12680;57.804;12.190;2023-02-01T17:21:30;16.48;;;4.38;;
24521;SDS011;12680;57.804;12.190;2023-02-01T17:24:12;11.30;;;3.58;;
24521;SDS011;12680;57.804;12.190;2023-02-01T17:26:41;7.00;;;2.50;;
24521;SDS011;12680;57.804;12.190;2023-02-01T17:29:08;12.15;;;3.60;;
24521;SDS011;12680;57.804;12.190;2023-02-01T17:31:36;10.32;;;3.20;;
24521;SDS011;12680;57.804;12.190;2023-02-01T17:34:09;10.88;;;3.65;;
24521;SDS011;12680;57.804;12.190;2023-02-01T17:36:37;12.65;;;4.32;;
24521;SDS011;12680;57.804;12.190;2023-02-01T17:39:08;10.32;;;3.58;;
24521;SDS011;12680;57.804;12.190;2023-02-01T17:41:35;8.23;;;3.50;;
24521;SDS011;12680;57.804;12.190;2023-02-01T17:44:03;5.82;;;2.47;;
24521;SDS011;12680;57.804;12.190;2023-02-01T17:46:30;25.30;;;4.90;;
24521;SDS011;12680;57.804;12.190;2023-02-01T17:48:57;20.45;;;4.10;;
24521;SDS011;12680;57.804;12.190;2023-02-01T17:51:25;18.95;;;3.53;;
24521;SDS011;12680;57.804;12.190;2023-02-01T17:53:53;10.70;;;3.78;;
24521;SDS011;12680;57.804;12.190;2023-02-01T17:56:21;13.63;;;5.18;;
24521;SDS011;12680;57.804;12.190;2023-02-01T17:58:50;29.92;;;12.93;;